»·PEaware :: N660WC KSNA-KSDM

N660WC :: KSNA-KSDM

FLIGHT INFORMATION

Flight Status: Arrived
Operator: Privately registered:
United States
More flights under this callsign
Pilot: John H. (7647)
Aircraft: CESSNA T210 TURBO CENTURION
(T210)
More flights by this aircraft type
Origin: KSNA John Wayne-Orange Co
United States
Destination: KSDM Brown Mun
United States
More flights between these airports :: More routes between these airports
Route: V23 MZB
File this flight plan on PilotEdge
Remarks: TEC route CSTP31 / / I-4 Rating
Altitude:
(Current/Filed)
5,000ft
Speed:
(Current/Filed)
160kts
Departed: 02-Sep-18 03:28 PM
Arrived: 02-Sep-18 04:08 PM
Distance/Time
Traveled:
80nm/0:39
Distance/Time
To Go:
Arrived

Flight Plot

Page will automatically refresh every two minutes.


Map Options




Map Legend


Flown Route
Filed Route
Departure Airport
Arrival Airport
Navaid (VOR, NDB)
Fix

Horizontal Profiles

Position Reports

Time Latitude Longitude Heading Altitude Ground
Speed
02-Sep-18 15:18 33.676081 -117.870908 219 60ft 0kts
02-Sep-18 15:19 33.676081 -117.870908 219 60ft 0kts
02-Sep-18 15:20 33.676081 -117.870908 219 60ft 0kts
02-Sep-18 15:21 33.676081 -117.870908 219 60ft 0kts
02-Sep-18 15:22 33.676081 -117.870908 219 60ft 0kts
02-Sep-18 15:23 33.676081 -117.870908 219 60ft 0kts
02-Sep-18 15:24 33.676081 -117.870908 219 60ft 0kts
02-Sep-18 15:25 33.675742 -117.870411 80 60ft 7kts
02-Sep-18 15:26 33.679690 -117.867946 19 59ft 18kts
02-Sep-18 15:27 33.681218 -117.866425 117 60ft 0kts
02-Sep-18 15:28 33.681167 -117.866320 120 60ft 4kts
02-Sep-18 15:29 33.672680 -117.870576 205 122ft 85kts
02-Sep-18 15:30 33.649635 -117.877793 183 885ft 82kts
02-Sep-18 15:31 33.628835 -117.878841 185 1824ft 69kts
02-Sep-18 15:32 33.611290 -117.873268 111 2658ft 83kts
02-Sep-18 15:33 33.600909 -117.848899 140 3504ft 87kts
02-Sep-18 15:34 33.584851 -117.826903 136 4290ft 88kts
02-Sep-18 15:35 33.569731 -117.806723 140 4989ft 81kts
02-Sep-18 15:36 33.549233 -117.781408 136 5003ft 119kts
02-Sep-18 15:37 33.526269 -117.753300 138 4995ft 117kts
02-Sep-18 15:38 33.500478 -117.722757 138 5002ft 146kts
02-Sep-18 15:39 33.470011 -117.687077 138 4996ft 158kts
02-Sep-18 15:40 33.438579 -117.649644 137 4995ft 160kts
02-Sep-18 15:41 33.406833 -117.611980 137 4998ft 161kts
02-Sep-18 15:42 33.374813 -117.575013 139 5025ft 164kts
02-Sep-18 15:43 33.342694 -117.537135 138 5023ft 167kts
02-Sep-18 15:44 33.310931 -117.499536 138 5024ft 167kts
02-Sep-18 15:45 33.277098 -117.461507 142 4990ft 168kts
02-Sep-18 15:46 33.242862 -117.424093 140 4986ft 168kts
02-Sep-18 15:47 33.203206 -117.398740 165 4987ft 163kts
02-Sep-18 15:48 33.160330 -117.381448 162 4959ft 163kts
02-Sep-18 15:49 33.117783 -117.363525 162 4963ft 163kts
02-Sep-18 15:50 33.076136 -117.345763 163 4957ft 162kts
02-Sep-18 15:51 33.034113 -117.327904 163 4967ft 162kts
02-Sep-18 15:52 32.991757 -117.309640 161 4958ft 162kts
02-Sep-18 15:53 32.951773 -117.291936 168 4955ft 158kts
02-Sep-18 15:54 32.909403 -117.278823 168 4956ft 157kts
02-Sep-18 15:55 32.869498 -117.267470 182 4957ft 155kts
02-Sep-18 15:56 32.831128 -117.267200 137 4963ft 156kts
02-Sep-18 15:57 32.805406 -117.227425 131 4958ft 153kts
02-Sep-18 15:58 32.779769 -117.187856 131 4984ft 152kts
02-Sep-18 15:59 32.753319 -117.148090 131 4986ft 153kts
02-Sep-18 16:00 32.727404 -117.109077 131 4986ft 153kts
02-Sep-18 16:01 32.701381 -117.069863 130 4987ft 153kts
02-Sep-18 16:02 32.674984 -117.030138 130 4989ft 154kts
02-Sep-18 16:03 32.647476 -116.988812 131 4137ft 158kts
02-Sep-18 16:04 32.627050 -116.942789 94 2707ft 170kts
02-Sep-18 16:05 32.606135 -116.908650 178 2243ft 126kts
02-Sep-18 16:06 32.575194 -116.902890 171 1732ft 93kts
02-Sep-18 16:07 32.567845 -116.924308 275 1213ft 88kts
02-Sep-18 16:08 32.570435 -116.952808 273 845ft 81kts
02-Sep-18 16:09 32.572106 -116.973825 271 512ft 20kts
02-Sep-18 16:10 32.571424 -116.974148 189 512ft 0kts
02-Sep-18 16:11 32.570042 -116.974924 242 512ft 7kts
02-Sep-18 16:12 32.569240 -116.978673 224 512ft 12kts
02-Sep-18 16:13 32.569235 -116.979031 4 513ft 0kts
02-Sep-18 16:14 32.569235 -116.979031 4 513ft 0kts
02-Sep-18 16:15 32.569235 -116.979031 4 513ft 0kts
02-Sep-18 16:16 32.569235 -116.979031 4 513ft 0kts
02-Sep-18 16:17 32.569235 -116.979031 4 513ft 0kts

Navigation Log

Ident Type
1. KSNA Airport
2. MZB Navaid
3. KSDM Airport